sensor_id;sensor_type;location;lat;lon;timestamp;temperature;humidity
71563;DHT22;59391;52.504;13.438;2022-09-09T00:01:30;18.00;76.10
71563;DHT22;59391;52.504;13.438;2022-09-09T00:07:21;18.00;76.10
71563;DHT22;59391;52.504;13.438;2022-09-09T00:13:22;17.90;76.10
71563;DHT22;59391;52.504;13.438;2022-09-09T00:16:15;17.90;76.00
71563;DHT22;59391;52.504;13.438;2022-09-09T00:21:39;17.80;76.20
71563;DHT22;59391;52.504;13.438;2022-09-09T00:24:32;17.80;76.30
71563;DHT22;59391;52.504;13.438;2022-09-09T00:27:19;17.80;76.40
71563;DHT22;59391;52.504;13.438;2022-09-09T00:30:01;17.80;76.30
71563;DHT22;59391;52.504;13.438;2022-09-09T00:32:51;17.80;76.40
71563;DHT22;59391;52.504;13.438;2022-09-09T00:35:41;17.80;76.40
71563;DHT22;59391;52.504;13.438;2022-09-09T00:38:23;17.80;76.60
71563;DHT22;59391;52.504;13.438;2022-09-09T00:41:06;17.80;76.50
71563;DHT22;59391;52.504;13.438;2022-09-09T00:43:40;17.70;76.40
71563;DHT22;59391;52.504;13.438;2022-09-09T00:49:49;17.70;76.50
71563;DHT22;59391;52.504;13.438;2022-09-09T00:58:14;17.70;76.30
71563;DHT22;59391;52.504;13.438;2022-09-09T01:00:44;17.70;76.20
71563;DHT22;59391;52.504;13.438;2022-09-09T01:03:30;17.70;76.30
71563;DHT22;59391;52.504;13.438;2022-09-09T01:09:04;17.70;76.10
71563;DHT22;59391;52.504;13.438;2022-09-09T01:17:28;17.70;75.90
71563;DHT22;59391;52.504;13.438;2022-09-09T01:20:10;17.70;75.80
71563;DHT22;59391;52.504;13.438;2022-09-09T01:23:25;17.70;75.70
71563;DHT22;59391;52.504;13.438;2022-09-09T01:26:15;17.60;75.90
71563;DHT22;59391;52.504;13.438;2022-09-09T01:28:50;17.70;75.80
71563;DHT22;59391;52.504;13.438;2022-09-09T01:31:38;17.60;75.50
71563;DHT22;59391;52.504;13.438;2022-09-09T01:34:14;17.60;75.50
71563;DHT22;59391;52.504;13.438;2022-09-09T01:36:57;17.60;75.60
71563;DHT22;59391;52.504;13.438;2022-09-09T01:39:26;17.60;75.50
71563;DHT22;59391;52.504;13.438;2022-09-09T01:41:53;17.60;75.50
71563;DHT22;59391;52.504;13.438;2022-09-09T01:44:21;17.60;75.60
71563;DHT22;59391;52.504;13.438;2022-09-09T01:46:47;17.50;75.60
71563;DHT22;59391;52.504;13.438;2022-09-09T01:49:13;17.50;75.50
71563;DHT22;59391;52.504;13.438;2022-09-09T01:51:40;17.50;75.30
71563;DHT22;59391;52.504;13.438;2022-09-09T01:54:07;17.50;75.40
71563;DHT22;59391;52.504;13.438;2022-09-09T01:57:15;17.50;75.30
71563;DHT22;59391;52.504;13.438;2022-09-09T01:59:53;17.40;75.50
71563;DHT22;59391;52.504;13.438;2022-09-09T02:05:40;17.40;75.40
71563;DHT22;59391;52.504;13.438;2022-09-09T02:08:09;17.40;75.10
71563;DHT22;59391;52.504;13.438;2022-09-09T02:10:50;17.40;75.10
71563;DHT22;59391;52.504;13.438;2022-09-09T02:13:22;17.40;75.20
71563;DHT22;59391;52.504;13.438;2022-09-09T02:16:08;17.30;75.30
71563;DHT22;59391;52.504;13.438;2022-09-09T02:18:54;17.30;75.40
71563;DHT22;59391;52.504;13.438;2022-09-09T02:21:25;17.30;75.30
71563;DHT22;59391;52.504;13.438;2022-09-09T02:23:55;17.30;75.30
71563;DHT22;59391;52.504;13.438;2022-09-09T02:26:23;17.30;75.30
71563;DHT22;59391;52.504;13.438;2022-09-09T02:28:54;17.30;75.30
71563;DHT22;59391;52.504;13.438;2022-09-09T02:31:24;17.30;75.10
71563;DHT22;59391;52.504;13.438;2022-09-09T02:33:59;17.30;75.30
71563;DHT22;59391;52.504;13.438;2022-09-09T02:36:29;17.30;75.30
71563;DHT22;59391;52.504;13.438;2022-09-09T02:38:58;17.30;75.20
71563;DHT22;59391;52.504;13.438;2022-09-09T02:41:37;17.20;75.20
71563;DHT22;59391;52.504;13.438;2022-09-09T02:44:15;17.20;75.10
71563;DHT22;59391;52.504;13.438;2022-09-09T02:53:02;17.20;75.10
71563;DHT22;59391;52.504;13.438;2022-09-09T02:55:46;17.20;75.20
71563;DHT22;59391;52.504;13.438;2022-09-09T02:58:20;17.20;75.10
71563;DHT22;59391;52.504;13.438;2022-09-09T03:00:48;17.20;75.00
71563;DHT22;59391;52.504;13.438;2022-09-09T03:03:15;17.20;74.90
71563;DHT22;59391;52.504;13.438;2022-09-09T03:05:43;17.10;75.10
71563;DHT22;59391;52.504;13.438;2022-09-09T03:08:10;17.10;74.90
71563;DHT22;59391;52.504;13.438;2022-09-09T03:10:36;17.10;74.90
71563;DHT22;59391;52.504;13.438;2022-09-09T03:13:02;17.10;74.90
71563;DHT22;59391;52.504;13.438;2022-09-09T03:15:31;17.10;74.90
71563;DHT22;59391;52.504;13.438;2022-09-09T03:17:58;17.10;74.80
71563;DHT22;59391;52.504;13.438;2022-09-09T03:20:25;17.10;74.70
71563;DHT22;59391;52.504;13.438;2022-09-09T03:22:55;17.10;74.70
71563;DHT22;59391;52.504;13.438;2022-09-09T03:25:22;17.10;74.70
71563;DHT22;59391;52.504;13.438;2022-09-09T03:27:52;17.10;74.80
71563;DHT22;59391;52.504;13.438;2022-09-09T03:30:29;17.10;74.70
71563;DHT22;59391;52.504;13.438;2022-09-09T03:32:55;17.00;74.80
71563;DHT22;59391;52.504;13.438;2022-09-09T03:35:21;17.00;74.50
71563;DHT22;59391;52.504;13.438;2022-09-09T03:37:46;17.00;74.60
71563;DHT22;59391;52.504;13.438;2022-09-09T03:40:13;17.00;74.40
71563;DHT22;59391;52.504;13.438;2022-09-09T03:42:39;17.00;74.50
71563;DHT22;59391;52.504;13.438;2022-09-09T03:45:07;17.00;74.50
71563;DHT22;59391;52.504;13.438;2022-09-09T03:47:34;17.00;74.70
71563;DHT22;59391;52.504;13.438;2022-09-09T03:50:00;17.00;74.40
71563;DHT22;59391;52.504;13.438;2022-09-09T03:52:26;17.00;74.20
71563;DHT22;59391;52.504;13.438;2022-09-09T03:54:53;17.00;74.30
71563;DHT22;59391;52.504;13.438;2022-09-09T03:57:20;16.90;74.50
71563;DHT22;59391;52.504;13.438;2022-09-09T03:59:46;16.90;74.40
71563;DHT22;59391;52.504;13.438;2022-09-09T04:02:12;16.90;74.10
71563;DHT22;59391;52.504;13.438;2022-09-09T04:04:38;16.90;73.90
71563;DHT22;59391;52.504;13.438;2022-09-09T04:07:03;16.90;73.90
71563;DHT22;59391;52.504;13.438;2022-09-09T04:09:32;16.90;74.00
71563;DHT22;59391;52.504;13.438;2022-09-09T04:11:58;16.80;74.10
71563;DHT22;59391;52.504;13.438;2022-09-09T04:14:24;16.80;74.10
71563;DHT22;59391;52.504;13.438;2022-09-09T04:16:53;16.80;74.10
71563;DHT22;59391;52.504;13.438;2022-09-09T04:19:18;16.80;74.20
71563;DHT22;59391;52.504;13.438;2022-09-09T04:21:44;16.80;74.10
71563;DHT22;59391;52.504;13.438;2022-09-09T04:24:10;16.80;74.30
71563;DHT22;59391;52.504;13.438;2022-09-09T04:26:36;16.80;74.20
71563;DHT22;59391;52.504;13.438;2022-09-09T04:29:03;16.80;74.30
71563;DHT22;59391;52.504;13.438;2022-09-09T04:31:29;16.80;74.10
71563;DHT22;59391;52.504;13.438;2022-09-09T04:33:55;16.80;74.20
71563;DHT22;59391;52.504;13.438;2022-09-09T04:36:21;16.80;74.10
71563;DHT22;59391;52.504;13.438;2022-09-09T04:38:47;16.80;74.10
71563;DHT22;59391;52.504;13.438;2022-09-09T04:41:15;16.70;74.20
71563;DHT22;59391;52.504;13.438;2022-09-09T04:43:42;16.70;74.10
71563;DHT22;59391;52.504;13.438;2022-09-09T04:46:08;16.70;74.30
71563;DHT22;59391;52.504;13.438;2022-09-09T04:48:34;16.70;74.30
71563;DHT22;59391;52.504;13.438;2022-09-09T04:51:02;16.70;74.30
71563;DHT22;59391;52.504;13.438;2022-09-09T04:53:30;16.70;74.20
71563;DHT22;59391;52.504;13.438;2022-09-09T04:56:07;16.70;74.20
71563;DHT22;59391;52.504;13.438;2022-09-09T04:58:38;16.70;74.20
71563;DHT22;59391;52.504;13.438;2022-09-09T05:01:16;16.70;74.00
71563;DHT22;59391;52.504;13.438;2022-09-09T05:03:57;16.70;74.20
71563;DHT22;59391;52.504;13.438;2022-09-09T05:06:23;16.70;74.20
71563;DHT22;59391;52.504;13.438;2022-09-09T05:08:49;16.80;74.00
71563;DHT22;59391;52.504;13.438;2022-09-09T05:11:17;16.80;74.10
71563;DHT22;59391;52.504;13.438;2022-09-09T05:13:48;16.80;74.10
71563;DHT22;59391;52.504;13.438;2022-09-09T05:16:15;16.80;74.00
71563;DHT22;59391;52.504;13.438;2022-09-09T05:18:41;16.80;74.00
71563;DHT22;59391;52.504;13.438;2022-09-09T05:21:09;16.80;73.90
71563;DHT22;59391;52.504;13.438;2022-09-09T05:23:38;16.80;74.10
71563;DHT22;59391;52.504;13.438;2022-09-09T05:26:04;16.90;73.90
71563;DHT22;59391;52.504;13.438;2022-09-09T05:28:34;16.90;73.90
71563;DHT22;59391;52.504;13.438;2022-09-09T05:31:03;16.90;73.80
71563;DHT22;59391;52.504;13.438;2022-09-09T05:33:33;16.90;73.80
71563;DHT22;59391;52.504;13.438;2022-09-09T05:36:05;17.00;73.60
71563;DHT22;59391;52.504;13.438;2022-09-09T05:38:39;17.00;73.60
71563;DHT22;59391;52.504;13.438;2022-09-09T05:41:06;17.00;73.70
71563;DHT22;59391;52.504;13.438;2022-09-09T05:43:33;17.00;73.70
71563;DHT22;59391;52.504;13.438;2022-09-09T05:46:04;17.00;73.50
71563;DHT22;59391;52.504;13.438;2022-09-09T05:48:36;17.00;73.70
71563;DHT22;59391;52.504;13.438;2022-09-09T05:51:04;17.10;73.40
71563;DHT22;59391;52.504;13.438;2022-09-09T05:53:32;17.10;73.30
71563;DHT22;59391;52.504;13.438;2022-09-09T05:56:08;17.10;73.60
71563;DHT22;59391;52.504;13.438;2022-09-09T05:58:36;17.20;73.60
71563;DHT22;59391;52.504;13.438;2022-09-09T06:01:13;17.20;73.70
71563;DHT22;59391;52.504;13.438;2022-09-09T06:03:44;17.20;73.50
71563;DHT22;59391;52.504;13.438;2022-09-09T06:06:13;17.30;73.30
71563;DHT22;59391;52.504;13.438;2022-09-09T06:08:44;17.30;72.90
71563;DHT22;59391;52.504;13.438;2022-09-09T06:11:13;17.30;73.00
71563;DHT22;59391;52.504;13.438;2022-09-09T06:13:49;17.30;72.80
71563;DHT22;59391;52.504;13.438;2022-09-09T06:16:20;17.30;73.00
71563;DHT22;59391;52.504;13.438;2022-09-09T06:18:51;17.30;72.70
71563;DHT22;59391;52.504;13.438;2022-09-09T06:21:20;17.40;73.00
71563;DHT22;59391;52.504;13.438;2022-09-09T06:23:48;17.40;73.00
71563;DHT22;59391;52.504;13.438;2022-09-09T06:26:16;17.40;73.10
71563;DHT22;59391;52.504;13.438;2022-09-09T06:28:46;17.50;73.00
71563;DHT22;59391;52.504;13.438;2022-09-09T06:31:14;17.50;72.70
71563;DHT22;59391;52.504;13.438;2022-09-09T06:33:47;17.60;72.80
71563;DHT22;59391;52.504;13.438;2022-09-09T06:36:20;17.60;73.00
71563;DHT22;59391;52.504;13.438;2022-09-09T06:38:47;17.70;73.10
71563;DHT22;59391;52.504;13.438;2022-09-09T06:41:14;17.70;71.70
71563;DHT22;59391;52.504;13.438;2022-09-09T06:43:42;17.80;71.50
71563;DHT22;59391;52.504;13.438;2022-09-09T06:46:22;17.80;70.90
71563;DHT22;59391;52.504;13.438;2022-09-09T06:48:49;17.90;70.70
71563;DHT22;59391;52.504;13.438;2022-09-09T06:51:20;17.90;70.10
71563;DHT22;59391;52.504;13.438;2022-09-09T06:53:49;18.00;70.00
71563;DHT22;59391;52.504;13.438;2022-09-09T06:58:42;18.00;69.30
71563;DHT22;59391;52.504;13.438;2022-09-09T07:01:13;18.00;69.70
71563;DHT22;59391;52.504;13.438;2022-09-09T07:03:59;18.00;69.50
71563;DHT22;59391;52.504;13.438;2022-09-09T07:06:27;18.10;70.20
71563;DHT22;59391;52.504;13.438;2022-09-09T07:08:59;18.10;70.00
71563;DHT22;59391;52.504;13.438;2022-09-09T07:11:29;18.10;70.10
71563;DHT22;59391;52.504;13.438;2022-09-09T07:13:57;18.20;70.10
71563;DHT22;59391;52.504;13.438;2022-09-09T07:16:24;18.30;69.70
71563;DHT22;59391;52.504;13.438;2022-09-09T07:18:53;18.30;70.00
71563;DHT22;59391;52.504;13.438;2022-09-09T07:21:23;18.40;68.00
71563;DHT22;59391;52.504;13.438;2022-09-09T07:23:51;18.50;68.30
71563;DHT22;59391;52.504;13.438;2022-09-09T07:26:21;18.60;67.80
71563;DHT22;59391;52.504;13.438;2022-09-09T07:28:49;18.60;67.00
71563;DHT22;59391;52.504;13.438;2022-09-09T07:31:26;18.80;67.40
71563;DHT22;59391;52.504;13.438;2022-09-09T07:33:56;18.80;67.50
71563;DHT22;59391;52.504;13.438;2022-09-09T07:36:43;18.90;67.90
71563;DHT22;59391;52.504;13.438;2022-09-09T07:39:13;18.90;68.00
71563;DHT22;59391;52.504;13.438;2022-09-09T07:41:42;19.00;67.50
71563;DHT22;59391;52.504;13.438;2022-09-09T07:44:18;19.10;67.00
71563;DHT22;59391;52.504;13.438;2022-09-09T07:46:46;19.20;66.40
71563;DHT22;59391;52.504;13.438;2022-09-09T07:49:13;19.30;67.00
71563;DHT22;59391;52.504;13.438;2022-09-09T07:51:42;19.40;66.20
71563;DHT22;59391;52.504;13.438;2022-09-09T07:54:13;19.50;66.50
71563;DHT22;59391;52.504;13.438;2022-09-09T07:56:41;19.60;66.60
71563;DHT22;59391;52.504;13.438;2022-09-09T07:59:08;19.70;65.90
71563;DHT22;59391;52.504;13.438;2022-09-09T08:01:37;19.80;65.80
71563;DHT22;59391;52.504;13.438;2022-09-09T08:04:09;19.90;66.00
71563;DHT22;59391;52.504;13.438;2022-09-09T08:06:43;20.00;64.30
71563;DHT22;59391;52.504;13.438;2022-09-09T08:09:11;20.20;63.50
71563;DHT22;59391;52.504;13.438;2022-09-09T08:11:39;20.30;62.90
71563;DHT22;59391;52.504;13.438;2022-09-09T08:14:07;20.40;62.20
71563;DHT22;59391;52.504;13.438;2022-09-09T08:16:36;20.50;62.20
71563;DHT22;59391;52.504;13.438;2022-09-09T08:19:04;20.60;62.60
71563;DHT22;59391;52.504;13.438;2022-09-09T08:21:33;20.70;62.20
71563;DHT22;59391;52.504;13.438;2022-09-09T08:24:02;20.70;62.20
71563;DHT22;59391;52.504;13.438;2022-09-09T08:26:38;20.80;62.20
71563;DHT22;59391;52.504;13.438;2022-09-09T08:29:08;20.90;61.60
71563;DHT22;59391;52.504;13.438;2022-09-09T08:31:37;21.00;61.20
71563;DHT22;59391;52.504;13.438;2022-09-09T08:34:14;21.10;62.10
71563;DHT22;59391;52.504;13.438;2022-09-09T08:36:47;21.10;61.00
71563;DHT22;59391;52.504;13.438;2022-09-09T08:39:15;21.20;61.90
71563;DHT22;59391;52.504;13.438;2022-09-09T08:50:34;21.40;61.00
71563;DHT22;59391;52.504;13.438;2022-09-09T08:55:49;21.50;59.40
71563;DHT22;59391;52.504;13.438;2022-09-09T08:58:21;21.40;59.80
71563;DHT22;59391;52.504;13.438;2022-09-09T09:01:05;21.40;59.70
71563;DHT22;59391;52.504;13.438;2022-09-09T09:04:16;21.40;60.30
71563;DHT22;59391;52.504;13.438;2022-09-09T09:07:18;21.40;60.50
71563;DHT22;59391;52.504;13.438;2022-09-09T09:12:30;21.60;61.70
71563;DHT22;59391;52.504;13.438;2022-09-09T09:15:14;21.80;61.00
71563;DHT22;59391;52.504;13.438;2022-09-09T09:17:44;22.00;60.30
71563;DHT22;59391;52.504;13.438;2022-09-09T09:20:18;22.30;60.80
71563;DHT22;59391;52.504;13.438;2022-09-09T09:22:54;22.70;58.60
71563;DHT22;59391;52.504;13.438;2022-09-09T09:25:34;23.00;57.50
71563;DHT22;59391;52.504;13.438;2022-09-09T09:28:16;23.30;57.40
71563;DHT22;59391;52.504;13.438;2022-09-09T09:31:06;23.60;55.60
71563;DHT22;59391;52.504;13.438;2022-09-09T09:33:51;23.80;57.30
71563;DHT22;59391;52.504;13.438;2022-09-09T09:36:21;24.20;55.80
71563;DHT22;59391;52.504;13.438;2022-09-09T09:38:59;24.50;56.30
71563;DHT22;59391;52.504;13.438;2022-09-09T09:44:01;25.20;52.20
71563;DHT22;59391;52.504;13.438;2022-09-09T09:46:28;25.60;50.10
71563;DHT22;59391;52.504;13.438;2022-09-09T09:49:05;25.90;48.30
71563;DHT22;59391;52.504;13.438;2022-09-09T09:51:35;26.10;48.80
71563;DHT22;59391;52.504;13.438;2022-09-09T09:56:48;26.40;49.30
71563;DHT22;59391;52.504;13.438;2022-09-09T09:59:34;26.60;48.10
71563;DHT22;59391;52.504;13.438;2022-09-09T10:02:17;26.70;48.20
71563;DHT22;59391;52.504;13.438;2022-09-09T10:05:04;26.90;47.80
71563;DHT22;59391;52.504;13.438;2022-09-09T10:07:41;27.30;49.30
71563;DHT22;59391;52.504;13.438;2022-09-09T10:10:13;27.60;48.30
71563;DHT22;59391;52.504;13.438;2022-09-09T10:15:56;28.40;44.50
71563;DHT22;59391;52.504;13.438;2022-09-09T10:21:10;28.90;43.50
71563;DHT22;59391;52.504;13.438;2022-09-09T10:24:23;29.00;41.10
71563;DHT22;59391;52.504;13.438;2022-09-09T10:36:50;28.30;41.10
71563;DHT22;59391;52.504;13.438;2022-09-09T10:39:35;28.00;41.20
71563;DHT22;59391;52.504;13.438;2022-09-09T10:42:26;27.70;41.90
71563;DHT22;59391;52.504;13.438;2022-09-09T10:45:29;27.30;42.80
71563;DHT22;59391;52.504;13.438;2022-09-09T10:50:55;26.80;44.20
71563;DHT22;59391;52.504;13.438;2022-09-09T10:56:20;26.50;45.50
71563;DHT22;59391;52.504;13.438;2022-09-09T10:59:00;26.60;46.10
71563;DHT22;59391;52.504;13.438;2022-09-09T11:01:38;26.80;45.20
71563;DHT22;59391;52.504;13.438;2022-09-09T11:04:32;27.10;45.50
71563;DHT22;59391;52.504;13.438;2022-09-09T11:07:08;27.40;44.50
71563;DHT22;59391;52.504;13.438;2022-09-09T11:09:43;27.80;43.50
71563;DHT22;59391;52.504;13.438;2022-09-09T11:12:19;28.10;42.80
71563;DHT22;59391;52.504;13.438;2022-09-09T11:14:49;28.50;43.10
71563;DHT22;59391;52.504;13.438;2022-09-09T11:17:23;28.80;41.80
71563;DHT22;59391;52.504;13.438;2022-09-09T11:19:52;29.20;40.10
71563;DHT22;59391;52.504;13.438;2022-09-09T11:22:37;29.60;39.00
71563;DHT22;59391;52.504;13.438;2022-09-09T11:25:29;29.90;38.90
71563;DHT22;59391;52.504;13.438;2022-09-09T11:34:36;29.80;38.40
71563;DHT22;59391;52.504;13.438;2022-09-09T11:37:21;29.40;39.70
71563;DHT22;59391;52.504;13.438;2022-09-09T11:40:26;29.00;39.70
71563;DHT22;59391;52.504;13.438;2022-09-09T11:43:14;28.60;40.40
71563;DHT22;59391;52.504;13.438;2022-09-09T11:45:54;28.20;40.10
71563;DHT22;59391;52.504;13.438;2022-09-09T11:48:33;27.90;40.50
71563;DHT22;59391;52.504;13.438;2022-09-09T11:51:06;27.70;40.80
71563;DHT22;59391;52.504;13.438;2022-09-09T11:53:46;27.40;41.30
71563;DHT22;59391;52.504;13.438;2022-09-09T12:01:41;26.70;42.60
71563;DHT22;59391;52.504;13.438;2022-09-09T12:07:03;26.50;42.90
71563;DHT22;59391;52.504;13.438;2022-09-09T12:09:58;26.50;43.10
71563;DHT22;59391;52.504;13.438;2022-09-09T12:12:38;26.60;42.80
71563;DHT22;59391;52.504;13.438;2022-09-09T12:17:42;27.00;42.30
71563;DHT22;59391;52.504;13.438;2022-09-09T12:20:15;27.40;42.10
71563;DHT22;59391;52.504;13.438;2022-09-09T12:23:15;27.80;41.80
71563;DHT22;59391;52.504;13.438;2022-09-09T12:26:08;28.30;41.00
71563;DHT22;59391;52.504;13.438;2022-09-09T12:29:12;28.70;39.80
71563;DHT22;59391;52.504;13.438;2022-09-09T12:32:17;29.10;39.30
71563;DHT22;59391;52.504;13.438;2022-09-09T12:37:33;29.40;38.90
71563;DHT22;59391;52.504;13.438;2022-09-09T12:40:34;29.40;37.50
71563;DHT22;59391;52.504;13.438;2022-09-09T12:43:01;29.30;38.10
71563;DHT22;59391;52.504;13.438;2022-09-09T12:45:41;29.20;37.70
71563;DHT22;59391;52.504;13.438;2022-09-09T12:48:08;29.00;38.40
71563;DHT22;59391;52.504;13.438;2022-09-09T12:50:49;28.90;38.80
71563;DHT22;59391;52.504;13.438;2022-09-09T12:53:30;28.70;39.40
71563;DHT22;59391;52.504;13.438;2022-09-09T12:56:09;28.60;39.50
71563;DHT22;59391;52.504;13.438;2022-09-09T12:58:58;28.50;39.00
71563;DHT22;59391;52.504;13.438;2022-09-09T13:03:57;28.20;38.60
71563;DHT22;59391;52.504;13.438;2022-09-09T13:06:25;28.10;38.90
71563;DHT22;59391;52.504;13.438;2022-09-09T13:08:54;27.90;39.20
71563;DHT22;59391;52.504;13.438;2022-09-09T13:11:24;27.70;39.50
71563;DHT22;59391;52.504;13.438;2022-09-09T13:13:56;27.50;39.80
71563;DHT22;59391;52.504;13.438;2022-09-09T13:16:25;27.30;40.40
71563;DHT22;59391;52.504;13.438;2022-09-09T13:18:55;27.10;40.40
71563;DHT22;59391;52.504;13.438;2022-09-09T13:21:34;26.90;41.00
71563;DHT22;59391;52.504;13.438;2022-09-09T13:24:01;26.80;40.60
71563;DHT22;59391;52.504;13.438;2022-09-09T13:27:02;26.60;40.60
71563;DHT22;59391;52.504;13.438;2022-09-09T13:29:30;26.50;40.80
71563;DHT22;59391;52.504;13.438;2022-09-09T13:32:05;26.30;41.40
71563;DHT22;59391;52.504;13.438;2022-09-09T13:34:37;26.20;42.10
71563;DHT22;59391;52.504;13.438;2022-09-09T13:37:05;26.10;42.10
71563;DHT22;59391;52.504;13.438;2022-09-09T13:39:51;26.10;42.40
71563;DHT22;59391;52.504;13.438;2022-09-09T13:42:30;26.00;41.80
71563;DHT22;59391;52.504;13.438;2022-09-09T13:45:00;26.10;41.90
71563;DHT22;59391;52.504;13.438;2022-09-09T13:47:33;26.10;41.60
71563;DHT22;59391;52.504;13.438;2022-09-09T13:52:47;26.10;41.70
71563;DHT22;59391;52.504;13.438;2022-09-09T13:55:17;26.10;42.10
71563;DHT22;59391;52.504;13.438;2022-09-09T13:58:01;26.10;41.10
71563;DHT22;59391;52.504;13.438;2022-09-09T14:00:33;26.20;41.40
71563;DHT22;59391;52.504;13.438;2022-09-09T14:02:59;26.20;41.80
71563;DHT22;59391;52.504;13.438;2022-09-09T14:05:27;26.20;41.30
71563;DHT22;59391;52.504;13.438;2022-09-09T14:07:54;26.20;40.80
71563;DHT22;59391;52.504;13.438;2022-09-09T14:10:20;26.20;41.00
71563;DHT22;59391;52.504;13.438;2022-09-09T14:12:47;26.20;41.10
71563;DHT22;59391;52.504;13.438;2022-09-09T14:15:13;26.10;40.70
71563;DHT22;59391;52.504;13.438;2022-09-09T14:17:39;26.10;41.60
71563;DHT22;59391;52.504;13.438;2022-09-09T14:20:06;26.00;41.90
71563;DHT22;59391;52.504;13.438;2022-09-09T14:22:35;25.90;42.20
71563;DHT22;59391;52.504;13.438;2022-09-09T14:25:02;25.90;44.60
71563;DHT22;59391;52.504;13.438;2022-09-09T14:27:28;25.90;44.10
71563;DHT22;59391;52.504;13.438;2022-09-09T14:29:55;25.80;44.60
71563;DHT22;59391;52.504;13.438;2022-09-09T14:32:21;25.80;45.10
71563;DHT22;59391;52.504;13.438;2022-09-09T14:34:47;25.80;44.20
71563;DHT22;59391;52.504;13.438;2022-09-09T14:37:15;25.90;43.80
71563;DHT22;59391;52.504;13.438;2022-09-09T14:39:42;26.00;44.30
71563;DHT22;59391;52.504;13.438;2022-09-09T14:42:10;26.10;44.80
71563;DHT22;59391;52.504;13.438;2022-09-09T14:44:37;26.20;44.10
71563;DHT22;59391;52.504;13.438;2022-09-09T14:47:06;26.30;43.30
71563;DHT22;59391;52.504;13.438;2022-09-09T14:49:33;26.40;42.60
71563;DHT22;59391;52.504;13.438;2022-09-09T14:52:00;26.40;42.60
71563;DHT22;59391;52.504;13.438;2022-09-09T14:54:26;26.30;42.70
71563;DHT22;59391;52.504;13.438;2022-09-09T14:56:51;26.30;42.40
71563;DHT22;59391;52.504;13.438;2022-09-09T14:59:17;26.20;42.50
71563;DHT22;59391;52.504;13.438;2022-09-09T15:01:43;26.10;42.60
71563;DHT22;59391;52.504;13.438;2022-09-09T15:04:12;26.00;43.20
71563;DHT22;59391;52.504;13.438;2022-09-09T15:06:40;25.80;43.20
71563;DHT22;59391;52.504;13.438;2022-09-09T15:09:08;25.70;43.50
71563;DHT22;59391;52.504;13.438;2022-09-09T15:11:35;25.60;43.70
71563;DHT22;59391;52.504;13.438;2022-09-09T15:14:03;25.60;43.60
71563;DHT22;59391;52.504;13.438;2022-09-09T15:16:30;25.50;44.00
71563;DHT22;59391;52.504;13.438;2022-09-09T15:18:59;25.50;43.80
71563;DHT22;59391;52.504;13.438;2022-09-09T15:21:28;25.50;43.80
71563;DHT22;59391;52.504;13.438;2022-09-09T15:23:56;25.50;43.00
71563;DHT22;59391;52.504;13.438;2022-09-09T15:26:23;25.50;41.90
71563;DHT22;59391;52.504;13.438;2022-09-09T15:28:49;25.60;41.80
71563;DHT22;59391;52.504;13.438;2022-09-09T15:31:24;25.60;42.00
71563;DHT22;59391;52.504;13.438;2022-09-09T15:33:55;25.70;41.10
71563;DHT22;59391;52.504;13.438;2022-09-09T15:36:30;25.90;40.50
71563;DHT22;59391;52.504;13.438;2022-09-09T15:39:06;26.00;39.80
71563;DHT22;59391;52.504;13.438;2022-09-09T15:41:35;26.00;40.30
71563;DHT22;59391;52.504;13.438;2022-09-09T15:44:01;26.10;39.40
71563;DHT22;59391;52.504;13.438;2022-09-09T15:46:31;26.20;39.20
71563;DHT22;59391;52.504;13.438;2022-09-09T15:49:04;26.20;39.10
71563;DHT22;59391;52.504;13.438;2022-09-09T15:51:32;26.20;39.30
71563;DHT22;59391;52.504;13.438;2022-09-09T15:53:58;26.20;39.60
71563;DHT22;59391;52.504;13.438;2022-09-09T15:56:25;26.20;40.20
71563;DHT22;59391;52.504;13.438;2022-09-09T15:58:55;26.20;40.10
71563;DHT22;59391;52.504;13.438;2022-09-09T16:01:22;26.30;40.30
71563;DHT22;59391;52.504;13.438;2022-09-09T16:03:48;26.30;40.30
71563;DHT22;59391;52.504;13.438;2022-09-09T16:06:18;26.40;40.40
71563;DHT22;59391;52.504;13.438;2022-09-09T16:08:48;26.40;40.50
71563;DHT22;59391;52.504;13.438;2022-09-09T16:11:19;26.40;40.50
71563;DHT22;59391;52.504;13.438;2022-09-09T16:13:50;26.40;40.50
71563;DHT22;59391;52.504;13.438;2022-09-09T16:16:19;26.50;40.50
71563;DHT22;59391;52.504;13.438;2022-09-09T16:18:49;26.40;40.40
71563;DHT22;59391;52.504;13.438;2022-09-09T16:21:25;26.40;40.70
71563;DHT22;59391;52.504;13.438;2022-09-09T16:23:57;26.40;40.80
71563;DHT22;59391;52.504;13.438;2022-09-09T16:26:25;26.40;40.90
71563;DHT22;59391;52.504;13.438;2022-09-09T16:28:52;26.30;40.90
71563;DHT22;59391;52.504;13.438;2022-09-09T16:31:21;26.30;40.90
71563;DHT22;59391;52.504;13.438;2022-09-09T16:33:48;26.20;41.10
71563;DHT22;59391;52.504;13.438;2022-09-09T16:36:17;26.20;40.80
71563;DHT22;59391;52.504;13.438;2022-09-09T16:38:47;26.10;40.90
71563;DHT22;59391;52.504;13.438;2022-09-09T16:41:14;26.00;41.00
71563;DHT22;59391;52.504;13.438;2022-09-09T16:43:40;26.00;41.60
71563;DHT22;59391;52.504;13.438;2022-09-09T16:46:16;25.90;42.10
71563;DHT22;59391;52.504;13.438;2022-09-09T16:48:44;25.80;42.10
71563;DHT22;59391;52.504;13.438;2022-09-09T16:51:17;25.80;42.00
71563;DHT22;59391;52.504;13.438;2022-09-09T16:53:44;25.70;42.40
71563;DHT22;59391;52.504;13.438;2022-09-09T16:56:14;25.70;42.40
71563;DHT22;59391;52.504;13.438;2022-09-09T16:58:42;25.60;42.90
71563;DHT22;59391;52.504;13.438;2022-09-09T17:01:09;25.60;43.00
71563;DHT22;59391;52.504;13.438;2022-09-09T17:03:39;25.50;43.80
71563;DHT22;59391;52.504;13.438;2022-09-09T17:06:09;25.50;44.40
71563;DHT22;59391;52.504;13.438;2022-09-09T17:08:40;25.40;44.70
71563;DHT22;59391;52.504;13.438;2022-09-09T17:11:17;25.30;45.20
71563;DHT22;59391;52.504;13.438;2022-09-09T17:13:45;25.20;45.50
71563;DHT22;59391;52.504;13.438;2022-09-09T17:16:12;25.10;46.30
71563;DHT22;59391;52.504;13.438;2022-09-09T17:18:40;25.00;46.70
71563;DHT22;59391;52.504;13.438;2022-09-09T17:21:12;24.90;47.20
71563;DHT22;59391;52.504;13.438;2022-09-09T17:23:40;24.70;47.50
71563;DHT22;59391;52.504;13.438;2022-09-09T17:26:08;24.60;47.90
71563;DHT22;59391;52.504;13.438;2022-09-09T17:28:36;24.50;48.10
71563;DHT22;59391;52.504;13.438;2022-09-09T17:31:05;24.40;48.50
71563;DHT22;59391;52.504;13.438;2022-09-09T17:33:40;24.30;48.80
71563;DHT22;59391;52.504;13.438;2022-09-09T17:36:14;24.20;48.90